sensor_id;sensor_type;location;lat;lon;timestamp;P1;durP1;ratioP1;P2;durP2;ratioP2
55069;SDS011;40967;52.070;8.596;2024-02-21T00:02:01;21.23;;;11.32;;
55069;SDS011;40967;52.070;8.596;2024-02-21T00:04:30;22.67;;;11.90;;
55069;SDS011;40967;52.070;8.596;2024-02-21T00:06:58;18.98;;;11.38;;
55069;SDS011;40967;52.070;8.596;2024-02-21T00:09:25;15.93;;;9.50;;
55069;SDS011;40967;52.070;8.596;2024-02-21T00:11:51;16.52;;;9.15;;
55069;SDS011;40967;52.070;8.596;2024-02-21T00:14:18;15.27;;;8.52;;
55069;SDS011;40967;52.070;8.596;2024-02-21T00:16:45;14.97;;;8.67;;
55069;SDS011;40967;52.070;8.596;2024-02-21T00:19:11;15.88;;;8.25;;
55069;SDS011;40967;52.070;8.596;2024-02-21T00:21:39;24.43;;;11.17;;
55069;SDS011;40967;52.070;8.596;2024-02-21T00:24:10;16.83;;;9.40;;
55069;SDS011;40967;52.070;8.596;2024-02-21T00:26:36;14.68;;;8.82;;
55069;SDS011;40967;52.070;8.596;2024-02-21T00:29:03;14.65;;;8.55;;
55069;SDS011;40967;52.070;8.596;2024-02-21T00:31:30;18.70;;;9.87;;
55069;SDS011;40967;52.070;8.596;2024-02-21T00:33:57;14.45;;;8.57;;
55069;SDS011;40967;52.070;8.596;2024-02-21T00:36:23;17.60;;;9.53;;
55069;SDS011;40967;52.070;8.596;2024-02-21T00:38:53;17.67;;;9.40;;
55069;SDS011;40967;52.070;8.596;2024-02-21T00:41:21;19.13;;;10.20;;
55069;SDS011;40967;52.070;8.596;2024-02-21T00:43:49;20.40;;;10.80;;
55069;SDS011;40967;52.070;8.596;2024-02-21T00:46:16;21.10;;;11.32;;
55069;SDS011;40967;52.070;8.596;2024-02-21T00:48:42;22.35;;;11.43;;
55069;SDS011;40967;52.070;8.596;2024-02-21T00:51:09;25.17;;;11.83;;
55069;SDS011;40967;52.070;8.596;2024-02-21T00:53:35;19.25;;;10.65;;
55069;SDS011;40967;52.070;8.596;2024-02-21T00:56:03;17.30;;;9.60;;
55069;SDS011;40967;52.070;8.596;2024-02-21T00:58:32;19.40;;;10.60;;
55069;SDS011;40967;52.070;8.596;2024-02-21T01:01:10;19.95;;;10.40;;
55069;SDS011;40967;52.070;8.596;2024-02-21T01:04:23;17.25;;;9.95;;
55069;SDS011;40967;52.070;8.596;2024-02-21T01:06:50;15.23;;;8.50;;
55069;SDS011;40967;52.070;8.596;2024-02-21T01:09:17;23.00;;;11.23;;
55069;SDS011;40967;52.070;8.596;2024-02-21T01:11:43;21.83;;;12.50;;
55069;SDS011;40967;52.070;8.596;2024-02-21T01:14:11;22.40;;;11.57;;
55069;SDS011;40967;52.070;8.596;2024-02-21T01:16:38;23.67;;;12.15;;
55069;SDS011;40967;52.070;8.596;2024-02-21T01:19:04;20.67;;;11.23;;
55069;SDS011;40967;52.070;8.596;2024-02-21T01:21:31;19.15;;;10.65;;
55069;SDS011;40967;52.070;8.596;2024-02-21T01:23:57;19.63;;;11.00;;
55069;SDS011;40967;52.070;8.596;2024-02-21T01:26:24;20.73;;;10.90;;
55069;SDS011;40967;52.070;8.596;2024-02-21T01:28:51;19.05;;;10.73;;
55069;SDS011;40967;52.070;8.596;2024-02-21T01:31:19;21.43;;;10.63;;
55069;SDS011;40967;52.070;8.596;2024-02-21T01:33:45;22.92;;;10.48;;
55069;SDS011;40967;52.070;8.596;2024-02-21T01:36:13;24.40;;;11.68;;
55069;SDS011;40967;52.070;8.596;2024-02-21T01:38:43;18.97;;;10.57;;
55069;SDS011;40967;52.070;8.596;2024-02-21T01:41:10;16.92;;;10.20;;
55069;SDS011;40967;52.070;8.596;2024-02-21T01:43:36;14.38;;;9.23;;
55069;SDS011;40967;52.070;8.596;2024-02-21T01:46:03;22.93;;;11.27;;
55069;SDS011;40967;52.070;8.596;2024-02-21T01:48:31;22.40;;;11.52;;
55069;SDS011;40967;52.070;8.596;2024-02-21T01:50:57;20.35;;;10.85;;
55069;SDS011;40967;52.070;8.596;2024-02-21T01:53:27;22.50;;;11.53;;
55069;SDS011;40967;52.070;8.596;2024-02-21T01:55:56;21.30;;;11.93;;
55069;SDS011;40967;52.070;8.596;2024-02-21T01:58:23;17.25;;;10.32;;
55069;SDS011;40967;52.070;8.596;2024-02-21T02:00:50;17.95;;;10.48;;
55069;SDS011;40967;52.070;8.596;2024-02-21T02:03:17;30.25;;;13.02;;
55069;SDS011;40967;52.070;8.596;2024-02-21T02:05:47;25.95;;;13.63;;
55069;SDS011;40967;52.070;8.596;2024-02-21T02:08:15;20.83;;;11.05;;
55069;SDS011;40967;52.070;8.596;2024-02-21T02:10:42;18.73;;;10.70;;
55069;SDS011;40967;52.070;8.596;2024-02-21T02:13:09;23.73;;;12.38;;
55069;SDS011;40967;52.070;8.596;2024-02-21T02:15:39;20.05;;;10.48;;
55069;SDS011;40967;52.070;8.596;2024-02-21T02:18:06;16.20;;;9.07;;
55069;SDS011;40967;52.070;8.596;2024-02-21T02:20:33;18.85;;;10.32;;
55069;SDS011;40967;52.070;8.596;2024-02-21T02:23:05;18.75;;;10.18;;
55069;SDS011;40967;52.070;8.596;2024-02-21T02:25:39;18.92;;;9.85;;
55069;SDS011;40967;52.070;8.596;2024-02-21T02:28:06;17.87;;;9.43;;
55069;SDS011;40967;52.070;8.596;2024-02-21T02:30:33;17.80;;;10.48;;
55069;SDS011;40967;52.070;8.596;2024-02-21T02:33:01;19.00;;;10.82;;
55069;SDS011;40967;52.070;8.596;2024-02-21T02:35:27;19.17;;;11.05;;
55069;SDS011;40967;52.070;8.596;2024-02-21T02:37:54;18.77;;;10.88;;
55069;SDS011;40967;52.070;8.596;2024-02-21T02:40:20;22.20;;;12.05;;
55069;SDS011;40967;52.070;8.596;2024-02-21T02:42:48;18.23;;;10.73;;
55069;SDS011;40967;52.070;8.596;2024-02-21T02:45:16;20.00;;;10.82;;
55069;SDS011;40967;52.070;8.596;2024-02-21T02:47:43;16.50;;;9.93;;
55069;SDS011;40967;52.070;8.596;2024-02-21T02:50:11;23.80;;;13.00;;
55069;SDS011;40967;52.070;8.596;2024-02-21T02:52:38;21.95;;;11.15;;
55069;SDS011;40967;52.070;8.596;2024-02-21T02:55:04;21.92;;;11.82;;
55069;SDS011;40967;52.070;8.596;2024-02-21T02:57:34;19.55;;;11.13;;
55069;SDS011;40967;52.070;8.596;2024-02-21T03:00:09;21.88;;;11.70;;
55069;SDS011;40967;52.070;8.596;2024-02-21T03:02:37;18.20;;;10.30;;
55069;SDS011;40967;52.070;8.596;2024-02-21T03:05:11;19.33;;;10.25;;
55069;SDS011;40967;52.070;8.596;2024-02-21T03:07:39;21.83;;;11.57;;
55069;SDS011;40967;52.070;8.596;2024-02-21T03:10:06;18.05;;;10.00;;
55069;SDS011;40967;52.070;8.596;2024-02-21T03:12:33;17.43;;;9.73;;
55069;SDS011;40967;52.070;8.596;2024-02-21T03:15:00;22.88;;;11.75;;
55069;SDS011;40967;52.070;8.596;2024-02-21T03:17:28;21.52;;;10.95;;
55069;SDS011;40967;52.070;8.596;2024-02-21T03:19:54;18.48;;;10.75;;
55069;SDS011;40967;52.070;8.596;2024-02-21T03:22:21;16.60;;;9.63;;
55069;SDS011;40967;52.070;8.596;2024-02-21T03:24:48;17.60;;;9.48;;
55069;SDS011;40967;52.070;8.596;2024-02-21T03:27:15;14.95;;;8.98;;
55069;SDS011;40967;52.070;8.596;2024-02-21T03:29:42;15.40;;;8.73;;
55069;SDS011;40967;52.070;8.596;2024-02-21T03:32:09;17.00;;;9.40;;
55069;SDS011;40967;52.070;8.596;2024-02-21T03:34:37;21.70;;;10.70;;
55069;SDS011;40967;52.070;8.596;2024-02-21T03:37:03;21.65;;;11.02;;
55069;SDS011;40967;52.070;8.596;2024-02-21T03:39:30;27.52;;;13.15;;
55069;SDS011;40967;52.070;8.596;2024-02-21T03:41:57;18.35;;;10.45;;
55069;SDS011;40967;52.070;8.596;2024-02-21T03:44:25;25.48;;;12.73;;
55069;SDS011;40967;52.070;8.596;2024-02-21T03:46:52;22.70;;;11.20;;
55069;SDS011;40967;52.070;8.596;2024-02-21T03:49:18;17.27;;;9.97;;
55069;SDS011;40967;52.070;8.596;2024-02-21T03:51:46;17.90;;;9.15;;
55069;SDS011;40967;52.070;8.596;2024-02-21T03:54:13;15.50;;;8.73;;
55069;SDS011;40967;52.070;8.596;2024-02-21T03:56:39;14.52;;;8.50;;
55069;SDS011;40967;52.070;8.596;2024-02-21T03:59:06;15.63;;;8.00;;
55069;SDS011;40967;52.070;8.596;2024-02-21T04:01:33;14.50;;;7.97;;
55069;SDS011;40967;52.070;8.596;2024-02-21T04:03:59;16.65;;;8.70;;
55069;SDS011;40967;52.070;8.596;2024-02-21T04:06:26;12.98;;;7.30;;
55069;SDS011;40967;52.070;8.596;2024-02-21T04:08:54;14.70;;;8.55;;
55069;SDS011;40967;52.070;8.596;2024-02-21T04:11:30;13.45;;;7.13;;
55069;SDS011;40967;52.070;8.596;2024-02-21T04:13:57;20.63;;;9.98;;
55069;SDS011;40967;52.070;8.596;2024-02-21T04:16:25;15.32;;;8.95;;
55069;SDS011;40967;52.070;8.596;2024-02-21T04:18:51;18.30;;;8.87;;
55069;SDS011;40967;52.070;8.596;2024-02-21T04:21:17;14.02;;;7.75;;
55069;SDS011;40967;52.070;8.596;2024-02-21T04:23:44;15.45;;;7.78;;
55069;SDS011;40967;52.070;8.596;2024-02-21T04:26:12;13.68;;;7.35;;
55069;SDS011;40967;52.070;8.596;2024-02-21T04:28:38;16.98;;;8.57;;
55069;SDS011;40967;52.070;8.596;2024-02-21T04:31:05;18.00;;;9.05;;
55069;SDS011;40967;52.070;8.596;2024-02-21T04:33:32;14.43;;;7.87;;
55069;SDS011;40967;52.070;8.596;2024-02-21T04:35:58;14.35;;;8.15;;
55069;SDS011;40967;52.070;8.596;2024-02-21T04:38:25;20.45;;;10.32;;
55069;SDS011;40967;52.070;8.596;2024-02-21T04:40:53;14.32;;;7.82;;
55069;SDS011;40967;52.070;8.596;2024-02-21T04:43:21;19.85;;;10.82;;
55069;SDS011;40967;52.070;8.596;2024-02-21T04:45:48;18.02;;;9.05;;
55069;SDS011;40967;52.070;8.596;2024-02-21T04:48:14;18.77;;;10.02;;
55069;SDS011;40967;52.070;8.596;2024-02-21T04:50:41;16.75;;;9.90;;
55069;SDS011;40967;52.070;8.596;2024-02-21T04:53:07;27.17;;;12.63;;
55069;SDS011;40967;52.070;8.596;2024-02-21T04:55:34;16.13;;;9.60;;
55069;SDS011;40967;52.070;8.596;2024-02-21T04:58:00;26.83;;;13.55;;
55069;SDS011;40967;52.070;8.596;2024-02-21T05:00:31;23.92;;;12.30;;
55069;SDS011;40967;52.070;8.596;2024-02-21T05:02:57;29.10;;;14.27;;
55069;SDS011;40967;52.070;8.596;2024-02-21T05:05:25;19.67;;;10.90;;
55069;SDS011;40967;52.070;8.596;2024-02-21T05:07:52;17.58;;;10.32;;
55069;SDS011;40967;52.070;8.596;2024-02-21T05:10:18;18.90;;;11.10;;
55069;SDS011;40967;52.070;8.596;2024-02-21T05:19:03;26.33;;;15.20;;
55069;SDS011;40967;52.070;8.596;2024-02-21T05:21:35;29.33;;;14.97;;
55069;SDS011;40967;52.070;8.596;2024-02-21T05:24:05;24.60;;;12.68;;
55069;SDS011;40967;52.070;8.596;2024-02-21T05:26:32;19.10;;;11.02;;
55069;SDS011;40967;52.070;8.596;2024-02-21T05:29:01;28.95;;;14.45;;
55069;SDS011;40967;52.070;8.596;2024-02-21T05:31:54;23.40;;;12.30;;
55069;SDS011;40967;52.070;8.596;2024-02-21T05:34:22;29.42;;;15.55;;
55069;SDS011;40967;52.070;8.596;2024-02-21T05:36:50;31.95;;;16.17;;
55069;SDS011;40967;52.070;8.596;2024-02-21T05:39:17;25.73;;;13.77;;
55069;SDS011;40967;52.070;8.596;2024-02-21T05:41:44;20.45;;;11.77;;
55069;SDS011;40967;52.070;8.596;2024-02-21T05:50:55;19.88;;;10.43;;
55069;SDS011;40967;52.070;8.596;2024-02-21T05:53:24;19.27;;;9.45;;
55069;SDS011;40967;52.070;8.596;2024-02-21T05:55:54;15.48;;;9.18;;
55069;SDS011;40967;52.070;8.596;2024-02-21T05:58:21;15.85;;;9.25;;
55069;SDS011;40967;52.070;8.596;2024-02-21T06:00:47;14.23;;;9.02;;
55069;SDS011;40967;52.070;8.596;2024-02-21T06:03:15;14.70;;;9.00;;
55069;SDS011;40967;52.070;8.596;2024-02-21T06:05:42;14.35;;;8.05;;
55069;SDS011;40967;52.070;8.596;2024-02-21T06:08:10;18.40;;;9.90;;
55069;SDS011;40967;52.070;8.596;2024-02-21T06:10:37;17.83;;;10.05;;
55069;SDS011;40967;52.070;8.596;2024-02-21T06:13:03;22.70;;;10.70;;
55069;SDS011;40967;52.070;8.596;2024-02-21T06:15:30;15.90;;;9.20;;
55069;SDS011;40967;52.070;8.596;2024-02-21T06:17:57;20.77;;;10.20;;
55069;SDS011;40967;52.070;8.596;2024-02-21T06:20:23;14.00;;;7.95;;
55069;SDS011;40967;52.070;8.596;2024-02-21T06:22:50;15.55;;;9.02;;
55069;SDS011;40967;52.070;8.596;2024-02-21T06:31:55;17.77;;;9.57;;
55069;SDS011;40967;52.070;8.596;2024-02-21T06:34:21;14.27;;;8.82;;
55069;SDS011;40967;52.070;8.596;2024-02-21T06:36:51;17.92;;;9.90;;
55069;SDS011;40967;52.070;8.596;2024-02-21T06:39:17;18.97;;;9.20;;
55069;SDS011;40967;52.070;8.596;2024-02-21T06:41:50;20.65;;;11.13;;
55069;SDS011;40967;52.070;8.596;2024-02-21T06:44:54;14.02;;;8.68;;
55069;SDS011;40967;52.070;8.596;2024-02-21T06:47:22;18.13;;;9.07;;
55069;SDS011;40967;52.070;8.596;2024-02-21T06:49:49;19.48;;;10.43;;
55069;SDS011;40967;52.070;8.596;2024-02-21T06:52:19;19.27;;;10.25;;
55069;SDS011;40967;52.070;8.596;2024-02-21T06:54:46;15.95;;;9.07;;
55069;SDS011;40967;52.070;8.596;2024-02-21T06:57:13;15.33;;;8.47;;
55069;SDS011;40967;52.070;8.596;2024-02-21T06:59:40;13.17;;;8.07;;
55069;SDS011;40967;52.070;8.596;2024-02-21T07:02:07;18.63;;;9.32;;
55069;SDS011;40967;52.070;8.596;2024-02-21T07:04:35;24.27;;;12.17;;
55069;SDS011;40967;52.070;8.596;2024-02-21T07:07:04;23.00;;;12.20;;
55069;SDS011;40967;52.070;8.596;2024-02-21T07:09:31;17.27;;;9.40;;
55069;SDS011;40967;52.070;8.596;2024-02-21T07:11:57;18.80;;;9.75;;
55069;SDS011;40967;52.070;8.596;2024-02-21T07:14:24;14.35;;;8.38;;
55069;SDS011;40967;52.070;8.596;2024-02-21T07:16:51;15.43;;;7.88;;
55069;SDS011;40967;52.070;8.596;2024-02-21T07:19:17;18.05;;;9.07;;
55069;SDS011;40967;52.070;8.596;2024-02-21T07:21:45;19.35;;;10.07;;
55069;SDS011;40967;52.070;8.596;2024-02-21T07:25:46;14.32;;;8.05;;
55069;SDS011;40967;52.070;8.596;2024-02-21T07:28:08;13.67;;;7.00;;
55069;SDS011;40967;52.070;8.596;2024-02-21T07:31:07;11.38;;;5.90;;
55069;SDS011;40967;52.070;8.596;2024-02-21T07:36:50;13.73;;;6.60;;
55069;SDS011;40967;52.070;8.596;2024-02-21T07:39:17;14.25;;;6.68;;
55069;SDS011;40967;52.070;8.596;2024-02-21T07:52:24;11.13;;;5.22;;
55069;SDS011;40967;52.070;8.596;2024-02-21T07:54:50;12.55;;;5.88;;
55069;SDS011;40967;52.070;8.596;2024-02-21T07:57:20;12.45;;;5.50;;
55069;SDS011;40967;52.070;8.596;2024-02-21T07:59:48;11.73;;;5.03;;
55069;SDS011;40967;52.070;8.596;2024-02-21T08:02:15;10.20;;;5.03;;
55069;SDS011;40967;52.070;8.596;2024-02-21T08:04:42;12.10;;;5.13;;
55069;SDS011;40967;52.070;8.596;2024-02-21T08:07:09;9.15;;;3.90;;
55069;SDS011;40967;52.070;8.596;2024-02-21T08:09:39;9.10;;;4.60;;
55069;SDS011;40967;52.070;8.596;2024-02-21T08:18:25;7.25;;;3.88;;
55069;SDS011;40967;52.070;8.596;2024-02-21T08:20:52;7.32;;;3.90;;
55069;SDS011;40967;52.070;8.596;2024-02-21T08:23:19;7.60;;;3.17;;
55069;SDS011;40967;52.070;8.596;2024-02-21T08:29:27;7.47;;;3.40;;
55069;SDS011;40967;52.070;8.596;2024-02-21T08:31:54;7.07;;;3.37;;
55069;SDS011;40967;52.070;8.596;2024-02-21T08:34:20;10.45;;;4.45;;
55069;SDS011;40967;52.070;8.596;2024-02-21T08:36:47;9.98;;;3.97;;
55069;SDS011;40967;52.070;8.596;2024-02-21T08:39:13;11.18;;;4.80;;
55069;SDS011;40967;52.070;8.596;2024-02-21T08:41:45;9.30;;;3.80;;
55069;SDS011;40967;52.070;8.596;2024-02-21T08:44:11;7.85;;;3.88;;
55069;SDS011;40967;52.070;8.596;2024-02-21T08:46:42;7.78;;;3.58;;
55069;SDS011;40967;52.070;8.596;2024-02-21T08:49:09;6.57;;;3.40;;
55069;SDS011;40967;52.070;8.596;2024-02-21T08:51:36;7.63;;;3.10;;
55069;SDS011;40967;52.070;8.596;2024-02-21T08:54:02;10.00;;;3.85;;
55069;SDS011;40967;52.070;8.596;2024-02-21T08:56:29;7.32;;;3.30;;
55069;SDS011;40967;52.070;8.596;2024-02-21T08:58:56;5.95;;;2.72;;
55069;SDS011;40967;52.070;8.596;2024-02-21T09:01:23;7.68;;;3.40;;
55069;SDS011;40967;52.070;8.596;2024-02-21T09:03:51;9.02;;;3.53;;
55069;SDS011;40967;52.070;8.596;2024-02-21T09:06:19;8.65;;;3.50;;
55069;SDS011;40967;52.070;8.596;2024-02-21T09:08:46;7.13;;;3.38;;
55069;SDS011;40967;52.070;8.596;2024-02-21T09:11:15;6.82;;;3.40;;
55069;SDS011;40967;52.070;8.596;2024-02-21T09:17:37;7.47;;;3.00;;
55069;SDS011;40967;52.070;8.596;2024-02-21T09:20:06;6.18;;;3.20;;
55069;SDS011;40967;52.070;8.596;2024-02-21T09:22:35;8.10;;;3.45;;
55069;SDS011;40967;52.070;8.596;2024-02-21T09:25:02;7.32;;;3.35;;
55069;SDS011;40967;52.070;8.596;2024-02-21T09:27:29;8.25;;;3.38;;
55069;SDS011;40967;52.070;8.596;2024-02-21T09:29:56;8.50;;;3.53;;
55069;SDS011;40967;52.070;8.596;2024-02-21T09:32:23;7.90;;;3.38;;
55069;SDS011;40967;52.070;8.596;2024-02-21T09:34:49;8.20;;;3.20;;
55069;SDS011;40967;52.070;8.596;2024-02-21T09:37:17;8.70;;;3.90;;
55069;SDS011;40967;52.070;8.596;2024-02-21T09:39:44;8.80;;;3.40;;
55069;SDS011;40967;52.070;8.596;2024-02-21T09:42:12;6.85;;;3.20;;
55069;SDS011;40967;52.070;8.596;2024-02-21T09:44:44;6.55;;;2.70;;
55069;SDS011;40967;52.070;8.596;2024-02-21T09:47:17;5.80;;;2.45;;
55069;SDS011;40967;52.070;8.596;2024-02-21T09:59:54;4.68;;;2.00;;
55069;SDS011;40967;52.070;8.596;2024-02-21T10:02:24;6.32;;;2.33;;
55069;SDS011;40967;52.070;8.596;2024-02-21T10:04:50;6.22;;;2.13;;
55069;SDS011;40967;52.070;8.596;2024-02-21T10:07:18;5.80;;;2.42;;
55069;SDS011;40967;52.070;8.596;2024-02-21T10:09:48;8.13;;;3.08;;
55069;SDS011;40967;52.070;8.596;2024-02-21T10:12:16;5.00;;;2.53;;
55069;SDS011;40967;52.070;8.596;2024-02-21T10:21:45;7.32;;;2.90;;
55069;SDS011;40967;52.070;8.596;2024-02-21T10:24:26;8.07;;;3.45;;
55069;SDS011;40967;52.070;8.596;2024-02-21T10:34:05;6.68;;;3.00;;
55069;SDS011;40967;52.070;8.596;2024-02-21T10:43:39;5.80;;;2.30;;
55069;SDS011;40967;52.070;8.596;2024-02-21T11:00:40;7.77;;;3.00;;
55069;SDS011;40967;52.070;8.596;2024-02-21T11:03:10;7.20;;;3.30;;
55069;SDS011;40967;52.070;8.596;2024-02-21T11:05:38;7.90;;;3.65;;
55069;SDS011;40967;52.070;8.596;2024-02-21T11:11:38;7.60;;;3.72;;
55069;SDS011;40967;52.070;8.596;2024-02-21T11:20:55;14.68;;;6.30;;
55069;SDS011;40967;52.070;8.596;2024-02-21T11:23:25;8.68;;;4.55;;
55069;SDS011;40967;52.070;8.596;2024-02-21T11:26:32;8.57;;;4.20;;
55069;SDS011;40967;52.070;8.596;2024-02-21T11:32:24;7.90;;;4.38;;
55069;SDS011;40967;52.070;8.596;2024-02-21T11:38:26;7.90;;;4.43;;
55069;SDS011;40967;52.070;8.596;2024-02-21T11:44:23;12.52;;;5.97;;
55069;SDS011;40967;52.070;8.596;2024-02-21T11:46:56;11.60;;;5.55;;
55069;SDS011;40967;52.070;8.596;2024-02-21T11:49:55;8.95;;;5.10;;
55069;SDS011;40967;52.070;8.596;2024-02-21T12:06:04;8.50;;;3.70;;
55069;SDS011;40967;52.070;8.596;2024-02-21T12:08:42;15.02;;;6.10;;
55069;SDS011;40967;52.070;8.596;2024-02-21T12:11:30;8.77;;;3.78;;
55069;SDS011;40967;52.070;8.596;2024-02-21T12:14:03;7.50;;;3.63;;
55069;SDS011;40967;52.070;8.596;2024-02-21T12:16:34;7.45;;;3.85;;
55069;SDS011;40967;52.070;8.596;2024-02-21T12:19:10;10.63;;;4.60;;
55069;SDS011;40967;52.070;8.596;2024-02-21T12:22:26;10.52;;;4.35;;
55069;SDS011;40967;52.070;8.596;2024-02-21T12:28:42;6.20;;;2.67;;
55069;SDS011;40967;52.070;8.596;2024-02-21T12:35:13;7.07;;;3.40;;
55069;SDS011;40967;52.070;8.596;2024-02-21T12:42:14;8.35;;;3.47;;
55069;SDS011;40967;52.070;8.596;2024-02-21T12:48:06;7.57;;;3.15;;
55069;SDS011;40967;52.070;8.596;2024-02-21T13:08:44;8.90;;;4.00;;
55069;SDS011;40967;52.070;8.596;2024-02-21T13:11:12;8.15;;;3.95;;
55069;SDS011;40967;52.070;8.596;2024-02-21T14:53:27;2.72;;;0.95;;
55069;SDS011;40967;52.070;8.596;2024-02-21T15:10:33;4.22;;;1.50;;
55069;SDS011;40967;52.070;8.596;2024-02-21T15:16:45;2.83;;;1.00;;
55069;SDS011;40967;52.070;8.596;2024-02-21T15:26:34;2.67;;;1.25;;
55069;SDS011;40967;52.070;8.596;2024-02-21T15:32:36;3.08;;;1.20;;
55069;SDS011;40967;52.070;8.596;2024-02-21T15:39:24;3.60;;;1.42;;
55069;SDS011;40967;52.070;8.596;2024-02-21T15:48:38;2.50;;;1.10;;
55069;SDS011;40967;52.070;8.596;2024-02-21T16:20:39;4.05;;;1.20;;
55069;SDS011;40967;52.070;8.596;2024-02-21T16:23:47;6.07;;;1.90;;
55069;SDS011;40967;52.070;8.596;2024-02-21T16:29:19;4.07;;;1.60;;
55069;SDS011;40967;52.070;8.596;2024-02-21T16:30:13;2.67;;;1.13;;
55069;SDS011;40967;52.070;8.596;2024-02-21T16:39:51;4.35;;;1.40;;
55069;SDS011;40967;52.070;8.596;2024-02-21T16:42:38;3.60;;;1.50;;
55069;SDS011;40967;52.070;8.596;2024-02-21T16:49:01;3.20;;;1.30;;
55069;SDS011;40967;52.070;8.596;2024-02-21T16:52:32;3.27;;;1.50;;
55069;SDS011;40967;52.070;8.596;2024-02-21T17:01:56;3.22;;;1.30;;
55069;SDS011;40967;52.070;8.596;2024-02-21T17:15:18;3.92;;;1.30;;
55069;SDS011;40967;52.070;8.596;2024-02-21T17:17:59;8.18;;;3.17;;
55069;SDS011;40967;52.070;8.596;2024-02-21T17:21:07;5.07;;;2.00;;
55069;SDS011;40967;52.070;8.596;2024-02-21T17:24:05;5.07;;;2.72;;
55069;SDS011;40967;52.070;8.596;2024-02-21T17:30:31;10.10;;;5.15;;
55069;SDS011;40967;52.070;8.596;2024-02-21T17:33:07;9.10;;;4.43;;
55069;SDS011;40967;52.070;8.596;2024-02-21T17:42:31;7.60;;;3.60;;
55069;SDS011;40967;52.070;8.596;2024-02-21T17:45:01;7.20;;;3.38;;
55069;SDS011;40967;52.070;8.596;2024-02-21T17:47:28;6.53;;;3.50;;
55069;SDS011;40967;52.070;8.596;2024-02-21T17:49:57;7.10;;;2.70;;
55069;SDS011;40967;52.070;8.596;2024-02-21T17:52:23;4.68;;;1.95;;
55069;SDS011;40967;52.070;8.596;2024-02-21T17:54:54;4.80;;;1.85;;
55069;SDS011;40967;52.070;8.596;2024-02-21T17:57:23;5.25;;;1.80;;
55069;SDS011;40967;52.070;8.596;2024-02-21T17:59:56;4.13;;;1.60;;
55069;SDS011;40967;52.070;8.596;2024-02-21T18:02:25;5.43;;;2.15;;
55069;SDS011;40967;52.070;8.596;2024-02-21T18:04:52;7.50;;;3.97;;
55069;SDS011;40967;52.070;8.596;2024-02-21T18:07:20;8.52;;;4.60;;
55069;SDS011;40967;52.070;8.596;2024-02-21T18:09:49;17.87;;;8.93;;
55069;SDS011;40967;52.070;8.596;2024-02-21T18:12:16;15.13;;;7.97;;
55069;SDS011;40967;52.070;8.596;2024-02-21T18:14:43;12.20;;;6.53;;
55069;SDS011;40967;52.070;8.596;2024-02-21T18:17:11;16.95;;;8.05;;
55069;SDS011;40967;52.070;8.596;2024-02-21T18:19:39;13.48;;;6.93;;
55069;SDS011;40967;52.070;8.596;2024-02-21T18:22:06;10.90;;;4.90;;
55069;SDS011;40967;52.070;8.596;2024-02-21T18:24:35;9.00;;;4.10;;
55069;SDS011;40967;52.070;8.596;2024-02-21T18:27:02;7.70;;;3.10;;
55069;SDS011;40967;52.070;8.596;2024-02-21T18:29:29;6.28;;;2.50;;
55069;SDS011;40967;52.070;8.596;2024-02-21T18:31:56;6.50;;;2.42;;
55069;SDS011;40967;52.070;8.596;2024-02-21T18:34:24;10.32;;;4.40;;
55069;SDS011;40967;52.070;8.596;2024-02-21T18:36:51;9.07;;;4.50;;
55069;SDS011;40967;52.070;8.596;2024-02-21T18:39:21;8.77;;;4.18;;
55069;SDS011;40967;52.070;8.596;2024-02-21T18:41:49;9.23;;;4.35;;
55069;SDS011;40967;52.070;8.596;2024-02-21T18:44:16;10.60;;;5.30;;
55069;SDS011;40967;52.070;8.596;2024-02-21T18:46:52;12.53;;;6.40;;
55069;SDS011;40967;52.070;8.596;2024-02-21T18:55:34;5.00;;;2.72;;
55069;SDS011;40967;52.070;8.596;2024-02-21T18:58:02;6.85;;;2.38;;
55069;SDS011;40967;52.070;8.596;2024-02-21T19:00:29;5.55;;;1.90;;
55069;SDS011;40967;52.070;8.596;2024-02-21T19:02:56;3.50;;;1.50;;
55069;SDS011;40967;52.070;8.596;2024-02-21T19:05:22;4.30;;;1.50;;
55069;SDS011;40967;52.070;8.596;2024-02-21T19:07:49;3.65;;;1.20;;
55069;SDS011;40967;52.070;8.596;2024-02-21T19:10:16;5.07;;;1.30;;
55069;SDS011;40967;52.070;8.596;2024-02-21T19:12:43;3.38;;;1.30;;
55069;SDS011;40967;52.070;8.596;2024-02-21T19:15:11;3.25;;;1.15;;
55069;SDS011;40967;52.070;8.596;2024-02-21T19:17:38;3.30;;;1.15;;
55069;SDS011;40967;52.070;8.596;2024-02-21T19:20:06;5.20;;;1.60;;
55069;SDS011;40967;52.070;8.596;2024-02-21T19:22:34;11.27;;;4.50;;
55069;SDS011;40967;52.070;8.596;2024-02-21T19:25:01;8.23;;;3.10;;
55069;SDS011;40967;52.070;8.596;2024-02-21T19:27:32;7.07;;;2.60;;
55069;SDS011;40967;52.070;8.596;2024-02-21T19:29:58;5.03;;;2.20;;
55069;SDS011;40967;52.070;8.596;2024-02-21T19:32:26;5.35;;;2.10;;
55069;SDS011;40967;52.070;8.596;2024-02-21T19:34:54;4.63;;;1.67;;
55069;SDS011;40967;52.070;8.596;2024-02-21T19:37:20;4.20;;;1.40;;
55069;SDS011;40967;52.070;8.596;2024-02-21T19:39:48;3.42;;;1.50;;
55069;SDS011;40967;52.070;8.596;2024-02-21T19:42:14;4.73;;;1.10;;
55069;SDS011;40967;52.070;8.596;2024-02-21T19:44:41;3.78;;;1.20;;
55069;SDS011;40967;52.070;8.596;2024-02-21T19:47:07;4.03;;;1.70;;
55069;SDS011;40967;52.070;8.596;2024-02-21T19:49:36;4.10;;;1.40;;
55069;SDS011;40967;52.070;8.596;2024-02-21T19:52:02;4.70;;;1.90;;
55069;SDS011;40967;52.070;8.596;2024-02-21T19:54:29;6.43;;;1.77;;
55069;SDS011;40967;52.070;8.596;2024-02-21T19:56:56;4.70;;;1.75;;
55069;SDS011;40967;52.070;8.596;2024-02-21T19:59:22;7.75;;;2.33;;
55069;SDS011;40967;52.070;8.596;2024-02-21T20:01:49;4.53;;;1.77;;
55069;SDS011;40967;52.070;8.596;2024-02-21T20:04:17;3.87;;;1.50;;
55069;SDS011;40967;52.070;8.596;2024-02-21T20:06:45;4.18;;;1.70;;
55069;SDS011;40967;52.070;8.596;2024-02-21T20:09:12;5.03;;;1.85;;
55069;SDS011;40967;52.070;8.596;2024-02-21T20:11:38;4.37;;;1.70;;
55069;SDS011;40967;52.070;8.596;2024-02-21T20:14:05;4.50;;;2.40;;
55069;SDS011;40967;52.070;8.596;2024-02-21T20:16:32;7.57;;;3.97;;
55069;SDS011;40967;52.070;8.596;2024-02-21T20:19:01;6.30;;;3.63;;
55069;SDS011;40967;52.070;8.596;2024-02-21T20:21:27;5.30;;;3.10;;
55069;SDS011;40967;52.070;8.596;2024-02-21T20:23:55;5.00;;;2.78;;
55069;SDS011;40967;52.070;8.596;2024-02-21T20:26:24;5.70;;;2.80;;
55069;SDS011;40967;52.070;8.596;2024-02-21T20:28:51;4.95;;;2.10;;
55069;SDS011;40967;52.070;8.596;2024-02-21T20:31:17;5.13;;;1.73;;
55069;SDS011;40967;52.070;8.596;2024-02-21T20:33:46;5.13;;;2.20;;
55069;SDS011;40967;52.070;8.596;2024-02-21T20:36:13;2.90;;;1.70;;
55069;SDS011;40967;52.070;8.596;2024-02-21T20:38:40;5.60;;;2.10;;
55069;SDS011;40967;52.070;8.596;2024-02-21T20:41:16;4.65;;;1.77;;
55069;SDS011;40967;52.070;8.596;2024-02-21T20:43:43;5.35;;;2.35;;
55069;SDS011;40967;52.070;8.596;2024-02-21T20:46:10;5.37;;;2.20;;
55069;SDS011;40967;52.070;8.596;2024-02-21T20:48:38;5.13;;;1.80;;
55069;SDS011;40967;52.070;8.596;2024-02-21T20:51:04;3.87;;;1.70;;
55069;SDS011;40967;52.070;8.596;2024-02-21T20:53:31;3.83;;;1.58;;
55069;SDS011;40967;52.070;8.596;2024-02-21T20:55:58;3.30;;;1.50;;
55069;SDS011;40967;52.070;8.596;2024-02-21T20:58:26;3.22;;;1.35;;
55069;SDS011;40967;52.070;8.596;2024-02-21T21:00:52;3.63;;;1.50;;
55069;SDS011;40967;52.070;8.596;2024-02-21T21:03:19;3.47;;;1.60;;
55069;SDS011;40967;52.070;8.596;2024-02-21T21:05:46;3.67;;;1.30;;
55069;SDS011;40967;52.070;8.596;2024-02-21T21:08:12;3.20;;;1.30;;